Latest Coastal Weather Observations for Friendly Beaches

IDT60701

Issued at 7:12 pm EDT Saturday 29 February 2020 (issued every 10 minutes, with the page automatically refreshed every 10 minutes)

About coastal observations | Map of coastal stations | Coastal observations for TAS | Marine services | Other Formats
Station Details ID: 092114 Name: FRIENDLY BEACHES Lat: -42.00 Lon: 148.28 Height: 55.0 m
Data from the previous 72 hours. | See also: Recent months at Friendly Beaches
Date/Time
EDT
Wind Sea
Height
m
Swell Vis
km
Cloud Weather Temp
°C
Press
hPa
Rain since
9am
mm
Dir  Spd
kts
Gust
kts
Height
m
Period
s
Dir
29/07:00pm ESE 2 4 - - - - - - - 20.2 1008.1 0.0
29/06:30pm NNE 4 6 - - - - - - - 22.3 1007.9 0.0
29/06:00pm NE 4 6 - - - - - - - 21.9 1007.8 0.0
29/05:30pm ENE 3 6 - - - - - - - 21.3 1007.9 0.0
29/05:00pm E 4 7 - - - - - - - 20.9 1008.0 0.0
29/04:30pm SE 5 7 - - - - - - - 21.8 1008.0 0.0
29/04:00pm SE 5 6 - - - - - - - 22.1 1008.2 0.0
29/03:30pm SE 5 7 - - - - - - - 22.6 1008.4 0.0
29/03:00pm E 5 7 - - - - - - - 22.5 1008.6 0.0
29/02:30pm ESE 5 7 - - - - - - - 22.7 1008.9 0.0
29/02:00pm ENE 5 6 - - - - - - - 22.9 1008.9 0.0
29/01:30pm ESE 6 8 - - - - - - - 22.2 1008.8 0.0
29/01:00pm ENE 5 6 - - - - - - - 22.5 1008.8 0.0
29/12:30pm ENE 5 8 - - - - - - - 22.4 1008.9 0.0
29/12:00pm ENE 6 8 - - - - - - - 21.7 1009.1 0.0
29/11:30am E 6 9 - - - - - - - 21.7 1009.2 0.0
29/11:00am E 5 9 - - - - - - - 21.1 1009.4 0.0
29/10:30am ESE 4 6 - - - - - - - 20.6 1009.3 0.0
29/10:00am ESE 4 5 - - - - - - - 20.9 1009.4 0.0
29/09:30am ESE 2 4 - - - - - - - 20.0 1009.0 0.0
29/09:00am CALM 0 0 - - - - - - - 18.0 1009.0 0.0
29/08:30am CALM 0 0 - - - - - - - 16.6 1009.1 0.0
29/08:00am SW 2 2 - - - - - - - 16.0 1008.8 0.0
29/07:30am W 2 7 - - - - - - - 15.2 1008.6 0.0
29/07:00am SE 3 8 - - - - - - - 14.0 1008.5 0.0
29/06:30am WNW 7 10 - - - - - - - 14.1 1008.1 0.0
29/06:00am W 5 7 - - - - - - - 14.5 1008.2 0.0
29/05:30am WSW 4 5 - - - - - - - 13.9 1008.4 0.0
29/05:00am WSW 5 7 - - - - - - - 14.2 1008.5 0.0
29/04:30am WNW 7 9 - - - - - - - 14.3 1008.7 0.0
29/04:00am WNW 7 11 - - - - - - - 13.9 1009.1 0.0
29/03:30am WNW 7 9 - - - - - - - 14.2 1009.2 0.0
29/03:00am NW 9 13 - - - - - - - 14.7 1009.1 0.0
29/02:30am NW 7 11 - - - - - - - 14.6 1009.3 0.0
29/02:00am WNW 8 11 - - - - - - - 14.9 1009.5 0.0
29/01:30am NW 4 7 - - - - - - - 14.4 1009.8 0.0
29/01:00am W 3 6 - - - - - - - 13.8 1010.0 0.0
29/12:30am N 3 4 - - - - - - - 13.6 1010.2 0.0
29/12:00am NNW 3 6 - - - - - - - 12.8 1010.3 0.0
 
Date/Time
EDT
Wind Sea
Height
m
Swell Vis
km
Cloud Weather Temp
°C
Press
hPa
Rain since
9am
mm
Dir  Spd
kts
Gust
kts
Height
m
Period
s
Dir
28/11:30pm NW 3 5 - - - - - - - 12.6 1010.3 0.0
28/11:00pm NW 3 3 - - - - - - - 12.9 1010.3 0.0
28/10:30pm WNW 3 4 - - - - - - - 13.4 1010.3 0.0
28/10:00pm CALM 0 1 - - - - - - - 13.6 1010.2 0.0
28/09:30pm S 2 2 - - - - - - - 14.3 1010.0 0.0
28/09:00pm NE 3 3 - - - - - - - 14.2 1009.7 0.0
28/08:30pm NE 3 4 - - - - - - - 14.6 1009.3 0.0
28/08:00pm NE 2 4 - - - - - - - 15.3 1009.1 0.0
28/07:30pm NE 4 6 - - - - - - - 16.3 1008.8 0.0
28/07:00pm NE 5 9 - - - - - - - 17.3 1008.6 0.0
28/06:30pm NE 6 11 - - - - - - - 17.1 1008.5 0.0
28/06:00pm NE 7 11 - - - - - - - 19.2 1008.1 0.0
28/05:30pm NE 8 13 - - - - - - - 19.6 1008.0 0.0
28/05:00pm NE 8 12 - - - - - - - 19.8 1008.0 0.0
28/04:30pm ENE 9 12 - - - - - - - 20.2 1008.1 0.0
28/04:00pm NE 10 15 - - - - - - - 20.1 1008.0 0.0
28/03:30pm NE 11 16 - - - - - - - 20.6 1007.9 0.0
28/03:00pm NE 10 15 - - - - - - - 20.4 1008.0 0.0
28/02:30pm NE 8 14 - - - - - - - 20.1 1008.2 0.0
28/02:00pm WSW 5 9 - - - - - - - 20.6 1008.3 0.0
28/01:30pm W 6 11 - - - - - - - 20.3 1008.4 0.0
28/01:00pm WSW 7 11 - - - - - - - 19.9 1008.4 0.0
28/12:30pm WSW 8 14 - - - - - - - 18.9 1008.3 0.0
28/12:00pm WSW 9 14 - - - - - - - 18.0 1008.3 0.0
28/11:30am WSW 9 17 - - - - - - - 18.0 1008.2 0.0
28/11:00am W 8 15 - - - - - - - 16.9 1008.1 0.0
28/10:30am WSW 10 17 - - - - - - - 16.4 1007.9 0.0
28/10:00am WSW 11 22 - - - - - - - 15.3 1008.1 0.0
28/09:30am WSW 7 13 - - - - - - - 14.5 1007.7 0.0
28/09:00am W 4 6 - - - - - - - 13.2 1007.5 0.0
28/08:30am W 5 10 - - - - - - - 12.1 1007.1 0.0
28/08:00am WSW 4 7 - - - - - - - 11.7 1006.9 0.0
28/07:30am WSW 5 9 - - - - - - - 10.7 1006.3 0.0
28/07:00am WSW 5 9 - - - - - - - 10.2 1005.8 0.0
28/06:30am WSW 9 16 - - - - - - - 10.7 1005.1 0.0
28/06:00am WSW 8 13 - - - - - - - 10.7 1004.2 0.0
28/05:30am WSW 9 16 - - - - - - - 10.9 1003.5 0.0
28/05:00am W 6 11 - - - - - - - 11.0 1003.2 0.0
28/04:30am WSW 9 15 - - - - - - - 11.6 1002.9 0.0
28/04:00am WSW 6 11 - - - - - - - 11.6 1002.5 0.0
28/03:30am WSW 11 22 - - - - - - - 12.5 1001.9 0.0
28/03:00am WSW 14 26 - - - - - - - 12.8 1001.3 0.0
28/02:56am WSW 15 26 - - - - - - - 13.0 1001.0 0.0
28/02:30am WSW 11 17 - - - - - - - 12.7 1000.8 0.0
28/02:00am W 4 6 - - - - - - - 11.0 1000.6 0.0
28/01:30am SW 2 3 - - - - - - - 11.4 1000.5 0.0
28/01:00am WNW 4 6 - - - - - - - 12.4 1000.3 0.0
28/12:30am W 4 8 - - - - - - - 13.6 1000.3 0.0
28/12:00am W 5 8 - - - - - - - 13.9 1000.1 0.0
 
Date/Time
EDT
Wind Sea
Height
m
Swell Vis
km
Cloud Weather Temp
°C
Press
hPa
Rain since
9am
mm
Dir  Spd
kts
Gust
kts
Height
m
Period
s
Dir
27/11:30pm WSW 9 19 - - - - - - - 14.4 999.5 0.0
27/11:00pm WSW 5 10 - - - - - - - 14.8 999.3 0.0
27/10:30pm SW 7 10 - - - - - - - 14.4 999.2 0.0
27/10:00pm SW 9 14 - - - - - - - 14.7 998.9 0.0
27/09:30pm SW 9 15 - - - - - - - 15.6 998.6 0.0
27/09:00pm SW 9 16 - - - - - - - 16.5 997.8 0.0
27/08:30pm SW 7 16 - - - - - - - 16.8 997.5 0.0
27/08:00pm SW 7 13 - - - - - - - 17.4 997.1 0.0
27/07:30pm W 9 17 - - - - - - - 18.6 996.6 0.0
27/07:00pm WNW 7 13 - - - - - - - 18.6 996.4 0.0
27/06:30pm WNW 8 17 - - - - - - - 19.0 996.1 0.0
27/06:00pm WNW 13 26 - - - - - - - 19.3 995.6 0.0
27/05:30pm WNW 11 22 - - - - - - - 20.1 995.5 0.0
27/05:00pm WNW 15 28 - - - - - - - 19.7 995.4 0.0
27/04:36pm WNW 15 26 - - - - - - - 20.1 995.4 0.0
27/04:30pm WNW 14 25 - - - - - - - 20.7 995.7 0.0
27/04:07pm NW 15 27 - - - - - - - 20.9 995.4 0.0
27/04:00pm WNW 12 24 - - - - - - - 21.2 995.4 0.0
27/03:30pm WNW 15 29 - - - - - - - 20.9 995.6 0.0
27/03:26pm NW 15 29 - - - - - - - 20.6 995.6 0.0
27/03:00pm NW 13 25 - - - - - - - 19.5 996.3 0.0
27/02:30pm NW 16 30 - - - - - - - 21.0 996.6 0.0
27/02:00pm WNW 15 29 - - - - - - - 20.6 996.7 0.0
27/01:44pm NW 15 26 - - - - - - - 19.9 996.9 0.0
27/01:30pm WNW 12 24 - - - - - - - 20.7 997.4 0.0
27/01:00pm NW 16 29 - - - - - - - 19.3 997.3 0.0
27/12:31pm NW 16 27 - - - - - - - 18.9 998.4 0.0
27/12:30pm NW 16 25 - - - - - - - 18.7 998.5 0.0
27/12:18pm NW 15 27 - - - - - - - 18.9 998.8 0.0
27/12:00pm NW 13 26 - - - - - - - 18.1 998.9 0.0
27/11:50am NW 15 25 - - - - - - - 17.8 998.9 0.0
27/11:30am NW 12 21 - - - - - - - 16.9 999.5 0.0
27/11:00am NW 13 20 - - - - - - - 16.2 1000.1 0.0
27/10:30am NW 13 23 - - - - - - - 15.7 1000.5 0.0
27/10:00am NW 10 22 - - - - - - - 15.6 1000.5 0.0
27/09:30am NW 12 23 - - - - - - - 15.2 1000.6 0.0
27/09:00am WNW 10 16 - - - - - - - 14.1 1001.0 9.8
27/08:30am NW 10 22 - - - - - - - 13.7 1000.9 9.8
27/08:00am NW 9 18 - - - - - - - 13.1 1001.1 9.8
27/07:30am NW 11 23 - - - - - - - 12.8 1001.0 9.8
27/07:00am NW 11 21 - - - - - - - 12.5 1001.3 9.8
27/06:30am WNW 10 22 - - - - - - - 12.3 1001.2 9.8
27/06:00am WNW 7 15 - - - - - - - 11.7 1001.4 9.8
27/05:30am NW 8 14 - - - - - - - 11.6 1001.5 9.8
27/05:00am WNW 11 19 - - - - - - - 11.6 1001.8 9.8
27/04:30am WNW 11 18 - - - - - - - 11.4 1002.2 9.8
27/04:00am NNW 7 15 - - - - - - - 11.0 1002.6 9.8
27/03:30am NNW 4 7 - - - - - - - 10.3 1002.8 9.8
27/03:00am NW 6 11 - - - - - - - 10.2 1003.1 9.8
27/02:30am NW 6 14 - - - - - - - 10.0 1003.8 9.8
27/02:00am NW 6 9 - - - - - - - 9.9 1004.2 9.8
27/01:30am NW 5 10 - - - - - - - 9.9 1004.9 9.8
27/01:00am NW 5 10 - - - - - - - 9.7 1005.0 9.8
27/12:30am NW 9 15 - - - - - - - 10.3 1005.3 9.8
27/12:00am WNW 6 9 - - - - - - - 9.7 1005.3 9.8
 
Date/Time
EDT
Wind Sea
Height
m
Swell Vis
km
Cloud Weather Temp
°C
Press
hPa
Rain since
9am
mm
Dir  Spd
kts
Gust
kts
Height
m
Period
s
Dir
26/11:30pm WNW 4 7 - - - - - - - 10.0 1005.6 9.8
26/11:00pm WNW 4 8 - - - - - - - 9.9 1005.6 9.8
26/10:30pm WNW 4 7 - - - - - - - 10.3 1005.7 9.8
26/10:00pm WNW 4 7 - - - - - - - 10.6 1005.8 9.8
26/09:30pm WNW 4 6 - - - - - - - 10.6 1005.9 9.8
26/09:00pm WSW 4 7 - - - - - - - 11.8 1005.4 9.8
26/08:30pm WSW 8 13 - - - - - - - 12.5 1005.1 9.8
26/08:00pm W 8 14 - - - - - - - 13.1 1004.9 9.8
26/07:30pm WSW 9 14 - - - - - - - 13.8 1004.6 9.8

Other formats

Comma delimited format used in spreadsheet applications
http://www.bom.gov.au/fwo/IDT60701/IDT60701.94987.axf

JavaScript Object Notation format (JSON) in row-major order
http://www.bom.gov.au/fwo/IDT60701/IDT60701.94987.json

Data quality

Most of these data are generated automatically and are frequently updated. Quality checks on data are not normally performed. It is possible for incorrect values to appear. Refer to information at About Latest Weather Observations and please check the disclaimer before using these data.